NEW EXCHEQUER-LK MCCLURE (EXC)

Elevation: 879' · MERCED R basin · Operator: Merced Irrigation District

Provisional data, subject to change.
Query executed Sunday at 16:54:40   clock

Select a sensor type for a plot of data.
Note: Reservoir Flows are daily averages.

Earlier

Date RES ELE    STORAGE    RES CHG    TOC STO    ABV TOC    OUTFLOW    INFLOW    PPT INC    TEMP MN    TEMP MX    TEMP AV   
 FEET   AF   AF   AF   AF   CFS   CFS   INCHES   DEG F   DEG F   DEG F  
03/21/2014 686.07 229161 -- 697400 -- 591 486 0.00 -- -- --
03/22/2014 686.16 229368 -- 701200 -472200 420 524 0.00 -- -- --
03/23/2014 686.38 229874 -- 705000 -475126 249 504 0.00 -- -- --
03/24/2014 686.86 230978 -- 708800 -477822 25 582 0.00 -- -- --
03/25/2014 687.34 232082 -- 712600 -480518 26 583 0.05 -- -- --
03/26/2014 687.91 233393 -- 716400 -483007 25 656 0.36 -- -- --
03/27/2014 688.39 234536 -- 720300 -485764 25 602 0.00 -- -- --
03/28/2014 688.80 235520 -- 724100 -488580 25 521 0.00 -- -- --
03/29/2014 689.25 236600 -- 727900 -491300 81 625 0.59 -- -- --
03/30/2014 688.94 249300 -- 731700 -495844 773 397 0.00 -- -- --
03/31/2014 689.16 236384 -- 735500 -499116 340 606 0.27 -- -- --
04/01/2014 689.56 237344 -- 739300 -501956 80 564 0.50 -- -- --
04/02/2014 689.79 237896 -- 743100 -505204 307 585 0.00 -- -- --
04/03/2014 690.21 238904 -- 746900 -507996 70 578 0.00 -- -- --
04/04/2014 690.31 239144 -- 750700 -511556 376 497 0.00 -- -- --
04/05/2014 690.65 239960 -- 754500 -514540 66 478 0.00 -- -- --
04/06/2014 690.12 238688 -- 758300 -519612 1021 380 0.00 -- -- --
04/07/2014 690.68 240032 -- 762100 -522068 27 705 0.00 -- -- --
04/08/2014 691.48 241952 -- 765900 -523948 26 994 0.00 -- -- --
04/09/2014 692.41 244184 -- 769700 -525516 26 1151 0.00 -- -- --
04/10/2014 693.37 246488 -- 773500 -527012 26 1188 0.00 -- -- --
04/11/2014 694.87 250175 -- 777300 -529468 220 1401 0.00 -- -- --
04/12/2014 693.93 247832 -- 781100 -530925 518 1196 0.00 -- -- --
04/13/2014 696.04 253100 -- 784900 -531800 77 1552 0.00 -- -- --
04/14/2014 697.25 256125 -- 788700 -532575 26 1551 0.00 -- -- --
04/15/2014 698.07 258175 -- 792500 -534325 481 1514 0.00 -- -- --
04/16/2014 698.93 260325 -- 796300 -535975 522 1607 0.00 -- -- --
04/17/2014 700.14 263364 -- 800100 -536736 177 1709 0.00 -- -- --
04/18/2014 700.26 266276 -- 803900 -537624 384 1852 0.00 -- -- --
04/19/2014 702.33 269058 -- 807800 -538742 464 1867 0.00 -- -- --
04/20/2014 -- 272000 e -- -- -- -- -- -- -- -- --

Later | Latest

Warning! This data is preliminary and subject to revision.

Download Data Now Download Data Now | Show EXC Map | Plot EXC Data | 1 Month EXC Data | Real-Time EXC Data | EXC Info